createdAt,value
2019-02-02T00:00:16.820Z,0
2019-02-02T00:01:26.759Z,0
2019-02-02T00:02:36.448Z,0
2019-02-02T00:03:46.430Z,0
2019-02-02T00:04:56.357Z,0
2019-02-02T00:06:06.332Z,0
2019-02-02T00:07:15.766Z,0
2019-02-02T00:08:25.450Z,0
2019-02-02T00:09:35.254Z,0
2019-02-02T00:10:44.960Z,0
2019-02-02T00:11:54.672Z,0
2019-02-02T00:13:04.612Z,0
2019-02-02T00:14:14.542Z,0
2019-02-02T00:15:23.978Z,0
2019-02-02T00:16:33.668Z,0
2019-02-02T00:17:43.407Z,0
2019-02-02T00:18:53.355Z,0
2019-02-02T00:20:03.335Z,0
2019-02-02T00:21:13.037Z,0
2019-02-02T00:22:22.981Z,0
2019-02-02T00:23:32.924Z,0
2019-02-02T00:24:42.866Z,0
2019-02-02T00:25:52.800Z,0
2019-02-02T00:27:02.727Z,0
2019-02-02T00:28:12.410Z,0
2019-02-02T00:29:22.355Z,0
2019-02-02T00:30:31.548Z,0
2019-02-02T00:31:41.497Z,0
2019-02-02T00:32:51.434Z,0
2019-02-02T00:34:01.136Z,0
2019-02-02T00:35:11.069Z,0
2019-02-02T00:36:20.614Z,0
2019-02-02T00:37:30.562Z,0
2019-02-02T00:38:40.502Z,0
2019-02-02T00:39:50.444Z,0
2019-02-02T00:41:00.376Z,0
2019-02-02T00:42:10.381Z,0
2019-02-02T00:43:20.337Z,0
2019-02-02T00:44:30.030Z,0
2019-02-02T00:45:39.975Z,0
2019-02-02T00:46:49.921Z,0
2019-02-02T00:47:59.101Z,0
2019-02-02T00:49:09.065Z,0
2019-02-02T00:50:19.025Z,0
2019-02-02T00:51:28.972Z,0
2019-02-02T00:52:38.390Z,0
2019-02-02T00:53:47.834Z,0
2019-02-02T00:54:57.773Z,0
2019-02-02T00:56:07.220Z,0
2019-02-02T00:57:16.922Z,0
2019-02-02T00:58:26.947Z,0
2019-02-02T00:59:36.969Z,0
2019-02-02T01:00:46.658Z,0
2019-02-02T01:01:56.627Z,0
2019-02-02T01:03:06.318Z,0
2019-02-02T01:04:15.996Z,0
2019-02-02T01:05:25.688Z,0
2019-02-02T01:06:35.621Z,0
2019-02-02T01:07:45.593Z,0
2019-02-02T01:08:55.538Z,0
2019-02-02T01:10:05.603Z,0
2019-02-02T01:11:15.538Z,0
2019-02-02T01:12:25.485Z,0
2019-02-02T01:13:35.172Z,0
2019-02-02T01:14:45.128Z,0
2019-02-02T01:15:54.579Z,0
2019-02-02T01:17:04.520Z,0
2019-02-02T01:18:14.463Z,0
2019-02-02T01:19:24.160Z,0
2019-02-02T01:20:33.615Z,0
2019-02-02T01:21:43.571Z,0
2019-02-02T01:22:53.257Z,0
2019-02-02T01:24:02.935Z,0
2019-02-02T01:25:12.634Z,0
2019-02-02T01:26:22.583Z,0
2019-02-02T01:27:32.515Z,0
2019-02-02T01:28:42.460Z,0
2019-02-02T01:29:52.155Z,0
2019-02-02T01:31:02.098Z,0
2019-02-02T01:32:13.934Z,0
2019-02-02T01:33:24.005Z,0
2019-02-02T01:34:33.692Z,0
2019-02-02T01:35:43.635Z,0
2019-02-02T01:36:53.318Z,0
2019-02-02T01:38:02.764Z,0
2019-02-02T01:39:12.575Z,0
2019-02-02T01:40:22.067Z,0
2019-02-02T01:41:32.042Z,0
2019-02-02T01:42:41.717Z,0
2019-02-02T01:43:51.414Z,0
2019-02-02T01:45:01.349Z,0
2019-02-02T01:46:11.291Z,0
2019-02-02T01:47:20.742Z,0
2019-02-02T01:48:30.184Z,0
2019-02-02T01:49:39.867Z,0
2019-02-02T01:50:49.801Z,0
2019-02-02T01:51:59.765Z,0
2019-02-02T01:53:09.703Z,0
2019-02-02T01:54:19.631Z,0
2019-02-02T01:55:29.320Z,0
2019-02-02T01:56:39.033Z,0
2019-02-02T01:57:48.706Z,0
2019-02-02T01:58:58.393Z,0
2019-02-02T02:00:08.358Z,0
2019-02-02T02:01:18.307Z,0
2019-02-02T02:02:28.257Z,0
2019-02-02T02:03:37.948Z,0
2019-02-02T02:04:47.641Z,0
2019-02-02T02:05:57.614Z,0
2019-02-02T02:07:07.298Z,0
2019-02-02T02:08:16.982Z,0
2019-02-02T02:09:26.676Z,0
2019-02-02T02:10:36.378Z,0
2019-02-02T02:11:46.072Z,0
2019-02-02T02:12:56.007Z,0
2019-02-02T02:14:05.443Z,0
2019-02-02T02:15:15.462Z,0
2019-02-02T02:16:25.417Z,0
2019-02-02T02:17:35.363Z,0
2019-02-02T02:18:45.291Z,0
2019-02-02T02:19:54.821Z,0
2019-02-02T02:21:04.615Z,0
2019-02-02T02:22:14.556Z,0
2019-02-02T02:23:23.969Z,0
2019-02-02T02:24:33.909Z,0
2019-02-02T02:25:43.854Z,0
2019-02-02T02:26:53.539Z,0
2019-02-02T02:28:03.229Z,0
2019-02-02T02:29:13.181Z,0
2019-02-02T02:30:23.146Z,0
2019-02-02T02:31:33.111Z,0
2019-02-02T02:32:43.084Z,0
2019-02-02T02:33:52.775Z,0
2019-02-02T02:35:02.717Z,0
2019-02-02T02:36:12.155Z,0
2019-02-02T02:37:22.109Z,0
2019-02-02T02:38:31.534Z,0
2019-02-02T02:39:41.509Z,0
2019-02-02T02:40:51.454Z,0
2019-02-02T02:42:01.407Z,0
2019-02-02T02:43:11.137Z,0
2019-02-02T02:44:20.845Z,0
2019-02-02T02:45:31.018Z,0
2019-02-02T02:46:40.742Z,0
2019-02-02T02:47:50.698Z,0
2019-02-02T02:49:00.409Z,0
2019-02-02T02:50:10.488Z,0
2019-02-02T02:51:20.215Z,0
2019-02-02T02:52:30.161Z,0
2019-02-02T02:53:39.691Z,0
2019-02-02T02:54:49.394Z,0
2019-02-02T02:55:59.077Z,0
2019-02-02T02:57:09.007Z,0
2019-02-02T02:58:18.715Z,0
2019-02-02T02:59:28.721Z,0
2019-02-02T03:00:38.693Z,0
2019-02-02T03:01:48.653Z,0
2019-02-02T03:02:58.474Z,0
2019-02-02T03:04:08.425Z,0
2019-02-02T03:05:18.371Z,0
2019-02-02T03:06:28.333Z,0
2019-02-02T03:07:38.302Z,0
2019-02-02T03:08:48.269Z,0
2019-02-02T03:09:58.065Z,0
2019-02-02T03:11:07.905Z,0
2019-02-02T03:12:17.847Z,0
2019-02-02T03:13:27.544Z,0
2019-02-02T03:14:37.502Z,0
2019-02-02T03:15:47.197Z,0
2019-02-02T03:16:56.919Z,0
2019-02-02T03:18:06.341Z,0
2019-02-02T03:19:16.166Z,0
2019-02-02T03:20:25.863Z,0
2019-02-02T03:21:35.809Z,0
2019-02-02T03:22:45.768Z,0
2019-02-02T03:23:55.725Z,0
2019-02-02T03:25:05.675Z,0
2019-02-02T03:26:15.374Z,0
2019-02-02T03:27:25.346Z,0
2019-02-02T03:28:35.286Z,0
2019-02-02T03:29:45.217Z,0
2019-02-02T03:30:54.925Z,0
2019-02-02T03:32:04.888Z,0
2019-02-02T03:33:14.855Z,0
2019-02-02T03:34:24.573Z,0
2019-02-02T03:35:34.634Z,0
2019-02-02T03:36:44.399Z,0
2019-02-02T03:37:54.378Z,0
2019-02-02T03:39:04.327Z,0
2019-02-02T03:40:14.279Z,0
2019-02-02T03:41:24.002Z,0
2019-02-02T03:42:33.955Z,0
2019-02-02T03:43:43.658Z,0
2019-02-02T03:44:53.588Z,0
2019-02-02T03:46:03.378Z,0
2019-02-02T03:47:13.364Z,0
2019-02-02T03:48:23.294Z,0
2019-02-02T03:49:32.996Z,0
2019-02-02T03:50:42.951Z,0
2019-02-02T03:51:53.003Z,0
2019-02-02T03:53:03.130Z,0
2019-02-02T03:54:16.323Z,0
2019-02-02T03:55:26.183Z,0
2019-02-02T03:56:36.124Z,0
2019-02-02T03:57:46.074Z,0
2019-02-02T03:59:08.311Z,0
2019-02-02T04:00:18.346Z,0
2019-02-02T04:01:30.051Z,0
2019-02-02T04:02:40.209Z,0
2019-02-02T04:03:49.657Z,0
2019-02-02T04:04:59.596Z,0
2019-02-02T04:06:09.575Z,0
2019-02-02T04:07:19.511Z,0
2019-02-02T04:08:29.439Z,0
2019-02-02T04:09:39.394Z,0
2019-02-02T04:10:49.335Z,0
2019-02-02T04:11:59.062Z,0
2019-02-02T04:13:09.006Z,0
2019-02-02T04:14:18.706Z,0
2019-02-02T04:15:28.644Z,0
2019-02-02T04:16:38.341Z,0
2019-02-02T04:17:48.320Z,0
2019-02-02T04:18:57.998Z,0
2019-02-02T04:20:07.949Z,0
2019-02-02T04:21:17.890Z,0
2019-02-02T04:22:27.069Z,0
2019-02-02T04:23:36.751Z,0
2019-02-02T04:24:46.434Z,0
2019-02-02T04:25:56.564Z,0
2019-02-02T04:27:06.002Z,0
2019-02-02T04:28:15.430Z,0
2019-02-02T04:29:25.401Z,0
2019-02-02T04:30:35.116Z,0
2019-02-02T04:31:44.806Z,0
2019-02-02T04:32:54.506Z,0
2019-02-02T04:34:03.944Z,0
2019-02-02T04:35:13.702Z,0
2019-02-02T04:36:23.645Z,0
2019-02-02T04:37:33.584Z,0
2019-02-02T04:38:45.950Z,0
2019-02-02T04:39:55.883Z,0
2019-02-02T04:41:05.822Z,0
2019-02-02T04:42:15.752Z,0
2019-02-02T04:43:25.438Z,0
2019-02-02T04:44:35.128Z,0
2019-02-02T04:45:44.808Z,0
2019-02-02T04:46:54.492Z,0
2019-02-02T04:48:04.185Z,0
2019-02-02T04:49:14.110Z,0
2019-02-02T04:50:23.558Z,0
2019-02-02T04:51:33.492Z,0
2019-02-02T04:52:43.264Z,0
2019-02-02T04:53:52.950Z,0
2019-02-02T04:55:05.400Z,0
2019-02-02T04:56:15.096Z,0
2019-02-02T04:57:24.774Z,0
2019-02-02T04:58:34.728Z,0
2019-02-02T04:59:44.666Z,0
2019-02-02T05:00:54.353Z,0
2019-02-02T05:02:04.280Z,0
2019-02-02T05:03:14.213Z,0
2019-02-02T05:04:23.917Z,0
2019-02-02T05:05:33.861Z,0
2019-02-02T05:06:43.796Z,0
2019-02-02T05:07:53.484Z,0
2019-02-02T05:09:03.428Z,0
2019-02-02T05:10:12.881Z,0
2019-02-02T05:11:22.853Z,0
2019-02-02T05:12:32.794Z,0
2019-02-02T05:13:42.501Z,0
2019-02-02T05:14:52.448Z,0
2019-02-02T05:16:02.392Z,0
2019-02-02T05:17:12.100Z,0
2019-02-02T05:18:21.288Z,0
2019-02-02T05:19:31.248Z,0
2019-02-02T05:20:41.192Z,0
2019-02-02T05:21:50.964Z,0
2019-02-02T05:23:00.904Z,0
2019-02-02T05:24:10.595Z,0
2019-02-02T05:25:20.596Z,0
2019-02-02T05:26:29.792Z,0
2019-02-02T05:27:39.292Z,0
2019-02-02T05:28:49.232Z,0
2019-02-02T05:29:58.908Z,0
2019-02-02T05:31:08.617Z,0
2019-02-02T05:32:18.564Z,0
2019-02-02T05:33:27.999Z,0
2019-02-02T05:34:37.924Z,0
2019-02-02T05:35:47.614Z,0
2019-02-02T05:36:57.570Z,0
2019-02-02T05:38:07.572Z,0
2019-02-02T05:39:17.500Z,0
2019-02-02T05:40:27.434Z,0
2019-02-02T05:41:37.152Z,0
2019-02-02T05:42:46.869Z,0
2019-02-02T05:43:56.816Z,0
2019-02-02T05:45:06.509Z,0
2019-02-02T05:46:16.199Z,0
2019-02-02T05:47:25.898Z,0
2019-02-02T05:48:35.832Z,0
2019-02-02T05:49:45.510Z,0
2019-02-02T05:50:57.393Z,0
2019-02-02T05:52:07.332Z,0
2019-02-02T05:53:17.020Z,0
2019-02-02T05:54:26.974Z,0
2019-02-02T05:55:36.678Z,0
2019-02-02T05:56:46.640Z,0
2019-02-02T05:57:56.074Z,0
2019-02-02T05:59:06.036Z,0
2019-02-02T06:00:15.219Z,0
2019-02-02T06:01:24.911Z,0
2019-02-02T06:02:37.732Z,0
2019-02-02T06:03:47.684Z,0
2019-02-02T06:04:57.638Z,0
2019-02-02T06:06:07.331Z,0
2019-02-02T06:07:17.288Z,0
2019-02-02T06:08:27.302Z,0
2019-02-02T06:09:37.262Z,0
2019-02-02T06:10:47.196Z,0
2019-02-02T06:11:57.144Z,0
2019-02-02T06:13:07.259Z,0
2019-02-02T06:14:16.948Z,0
2019-02-02T06:15:28.552Z,0
2019-02-02T06:16:38.313Z,0
2019-02-02T06:17:48.013Z,0
2019-02-02T06:18:57.961Z,0
2019-02-02T06:20:07.906Z,4
2019-02-02T06:21:17.970Z,4
2019-02-02T06:22:27.923Z,4
2019-02-02T06:23:37.871Z,4
2019-02-02T06:24:47.302Z,4
2019-02-02T06:26:00.242Z,8
2019-02-02T06:27:09.982Z,8
2019-02-02T06:28:19.415Z,8
2019-02-02T06:29:28.846Z,8
2019-02-02T06:30:38.786Z,12
2019-02-02T06:31:48.732Z,12
2019-02-02T06:32:58.685Z,12
2019-02-02T06:34:08.624Z,16
2019-02-02T06:35:18.067Z,20
2019-02-02T06:36:28.017Z,20
2019-02-02T06:37:37.719Z,24
2019-02-02T06:38:47.653Z,28
2019-02-02T06:39:57.582Z,32
2019-02-02T06:41:07.565Z,36
2019-02-02T06:42:17.497Z,44
2019-02-02T06:43:30.005Z,44
2019-02-02T06:44:40.249Z,48
2019-02-02T06:45:50.200Z,52
2019-02-02T06:47:00.138Z,60
2019-02-02T06:48:09.594Z,64
2019-02-02T06:49:19.529Z,72
2019-02-02T06:50:29.474Z,80
2019-02-02T06:51:39.398Z,92
2019-02-02T06:52:49.336Z,100
2019-02-02T06:53:59.013Z,108
2019-02-02T06:55:08.728Z,112
2019-02-02T06:56:18.702Z,128
2019-02-02T06:57:28.658Z,140
2019-02-02T06:58:38.598Z,148
2019-02-02T06:59:48.285Z,160
2019-02-02T07:00:58.232Z,168
2019-02-02T07:02:08.167Z,176
2019-02-02T07:03:18.129Z,192
2019-02-02T07:04:27.815Z,212
2019-02-02T07:05:40.983Z,228
2019-02-02T07:06:50.420Z,228
2019-02-02T07:08:00.123Z,228
2019-02-02T07:09:09.808Z,236
2019-02-02T07:10:19.747Z,240
2019-02-02T07:11:29.710Z,252
2019-02-02T07:12:39.670Z,268
2019-02-02T07:13:49.603Z,280
2019-02-02T07:14:59.553Z,308
2019-02-02T07:16:09.518Z,320
2019-02-02T07:17:19.202Z,316
2019-02-02T07:18:28.944Z,316
2019-02-02T07:19:39.126Z,316
2019-02-02T07:20:49.071Z,316
2019-02-02T07:21:59.023Z,340
2019-02-02T07:23:08.964Z,360
2019-02-02T07:24:18.680Z,360
2019-02-02T07:25:28.631Z,364
2019-02-02T07:26:38.345Z,364
2019-02-02T07:27:48.296Z,392
2019-02-02T07:28:58.296Z,396
2019-02-02T07:30:10.042Z,412
2019-02-02T07:31:20.047Z,408
2019-02-02T07:32:29.735Z,416
2019-02-02T07:33:39.697Z,460
2019-02-02T07:34:49.628Z,512
2019-02-02T07:36:01.169Z,572
2019-02-02T07:37:11.180Z,616
2019-02-02T07:38:21.136Z,620
2019-02-02T07:39:30.826Z,584
2019-02-02T07:40:40.515Z,632
2019-02-02T07:41:50.489Z,724
2019-02-02T07:43:00.171Z,800
2019-02-02T07:44:09.865Z,824
2019-02-02T07:45:19.569Z,788
2019-02-02T07:46:29.524Z,820
2019-02-02T07:47:39.468Z,908
2019-02-02T07:48:49.396Z,932
2019-02-02T07:49:58.827Z,872
2019-02-02T07:51:08.775Z,804
2019-02-02T07:52:18.719Z,812
2019-02-02T07:53:28.807Z,880
2019-02-02T07:54:40.422Z,976
2019-02-02T07:55:50.379Z,1020
2019-02-02T07:57:00.339Z,976
2019-02-02T07:58:10.345Z,896
2019-02-02T07:59:20.401Z,844
2019-02-02T08:00:42.733Z,792
2019-02-02T08:01:52.176Z,800
2019-02-02T08:03:01.866Z,820
2019-02-02T08:04:11.542Z,896
2019-02-02T08:05:21.488Z,1032
2019-02-02T08:06:30.914Z,1212
2019-02-02T08:07:40.853Z,1472
2019-02-02T08:08:50.806Z,1736
2019-02-02T08:10:00.350Z,1780
2019-02-02T08:11:10.051Z,1572
2019-02-02T08:12:21.729Z,1292
2019-02-02T08:13:31.686Z,1076
2019-02-02T08:14:41.639Z,976
2019-02-02T08:15:51.588Z,976
2019-02-02T08:17:01.545Z,1108
2019-02-02T08:18:11.505Z,1352
2019-02-02T08:19:21.439Z,1684
2019-02-02T08:20:33.184Z,1976
2019-02-02T08:21:43.114Z,2160
2019-02-02T08:22:52.825Z,2036
2019-02-02T08:24:04.035Z,1816
2019-02-02T08:25:13.777Z,1648
2019-02-02T08:26:23.719Z,1428
2019-02-02T08:27:33.407Z,1380
2019-02-02T08:28:43.345Z,1412
2019-02-02T08:29:53.276Z,1504
2019-02-02T08:31:02.975Z,1632
2019-02-02T08:32:12.683Z,1832
2019-02-02T08:33:22.621Z,1872
2019-02-02T08:34:32.568Z,1896
2019-02-02T08:35:42.263Z,1800
2019-02-02T08:36:52.214Z,1804
2019-02-02T08:38:02.226Z,1848
2019-02-02T08:39:12.170Z,1992
2019-02-02T08:40:22.129Z,2228
2019-02-02T08:41:32.113Z,2344
2019-02-02T08:42:41.818Z,1976
2019-02-02T08:43:51.811Z,1872
2019-02-02T08:45:01.495Z,1836
2019-02-02T08:46:11.204Z,1856
2019-02-02T08:47:21.140Z,1900
2019-02-02T08:48:30.829Z,2004
2019-02-02T08:49:42.853Z,2240
2019-02-02T08:50:52.552Z,2108
2019-02-02T08:52:02.230Z,2116
2019-02-02T08:53:11.984Z,2084
2019-02-02T08:54:21.806Z,2092
2019-02-02T08:55:32.009Z,2324
2019-02-02T08:56:42.001Z,2768
2019-02-02T08:57:51.478Z,3036
2019-02-02T08:59:01.457Z,2808
2019-02-02T09:00:11.398Z,2344
2019-02-02T09:01:21.359Z,2004
2019-02-02T09:02:31.312Z,1780
2019-02-02T09:03:41.481Z,1784
2019-02-02T09:04:51.517Z,1776
2019-02-02T09:06:01.675Z,1804
2019-02-02T09:07:11.845Z,1872
2019-02-02T09:08:21.788Z,2004
2019-02-02T09:09:31.734Z,2216
2019-02-02T09:10:41.431Z,2360
2019-02-02T09:11:53.427Z,2476
2019-02-02T09:13:03.374Z,2580
2019-02-02T09:14:13.080Z,2792
2019-02-02T09:15:23.067Z,2924
2019-02-02T09:16:33.016Z,3044
2019-02-02T09:17:45.922Z,2820
2019-02-02T09:18:58.547Z,2728
2019-02-02T09:20:08.510Z,2744
2019-02-02T09:21:18.453Z,2676
2019-02-02T09:22:28.135Z,2584
2019-02-02T09:23:38.079Z,2704
2019-02-02T09:24:48.024Z,2824
2019-02-02T09:25:59.406Z,3144
2019-02-02T09:27:09.111Z,3164
2019-02-02T09:28:19.072Z,3296
2019-02-02T09:29:29.031Z,3192
2019-02-02T09:30:38.498Z,3044
2019-02-02T09:31:48.221Z,3096
2019-02-02T09:32:57.947Z,3160
2019-02-02T09:34:07.655Z,3548
2019-02-02T09:35:17.353Z,3916
2019-02-02T09:36:27.307Z,4368
2019-02-02T09:37:37.013Z,4968
2019-02-02T09:38:46.975Z,4808
2019-02-02T09:39:56.923Z,4328
2019-02-02T09:41:06.359Z,3704
2019-02-02T09:42:16.056Z,3372
2019-02-02T09:43:26.004Z,3204
2019-02-02T09:44:35.963Z,3140
2019-02-02T09:45:45.665Z,3220
2019-02-02T09:46:55.478Z,3340
2019-02-02T09:48:05.472Z,3256
2019-02-02T09:49:15.423Z,3120
2019-02-02T09:50:25.120Z,2876
2019-02-02T09:51:34.812Z,2648
2019-02-02T09:52:44.755Z,2520
2019-02-02T09:53:56.116Z,2512
2019-02-02T09:55:06.095Z,2668
2019-02-02T09:56:15.809Z,3044
2019-02-02T09:57:27.732Z,3120
2019-02-02T09:58:37.741Z,3308
2019-02-02T09:59:47.694Z,3516
2019-02-02T10:00:57.630Z,3800
2019-02-02T10:02:07.592Z,3784
2019-02-02T10:03:17.681Z,3748
2019-02-02T10:04:27.369Z,3548
2019-02-02T10:05:36.823Z,3232
2019-02-02T10:06:46.513Z,3188
2019-02-02T10:07:56.481Z,3164
2019-02-02T10:09:06.188Z,3148
2019-02-02T10:10:15.619Z,3172
2019-02-02T10:11:25.577Z,3260
2019-02-02T10:12:35.287Z,3252
2019-02-02T10:13:45.235Z,3276
2019-02-02T10:14:55.198Z,3428
2019-02-02T10:16:05.155Z,3472
2019-02-02T10:17:14.606Z,3436
2019-02-02T10:18:24.298Z,3440
2019-02-02T10:19:34.277Z,3308
2019-02-02T10:20:44.263Z,3372
2019-02-02T10:21:57.005Z,3704
2019-02-02T10:23:07.152Z,3964
2019-02-02T10:24:17.214Z,3916
2019-02-02T10:25:27.151Z,3704
2019-02-02T10:26:37.103Z,3464
2019-02-02T10:27:46.531Z,3408
2019-02-02T10:28:55.968Z,3632
2019-02-02T10:30:05.931Z,3752
2019-02-02T10:31:15.395Z,3700
2019-02-02T10:32:24.843Z,3496
2019-02-02T10:33:34.556Z,3520
2019-02-02T10:34:44.247Z,3540
2019-02-02T10:35:54.195Z,3708
2019-02-02T10:37:04.154Z,3764
2019-02-02T10:38:14.083Z,3724
2019-02-02T10:39:23.771Z,3532
2019-02-02T10:40:37.232Z,3296
2019-02-02T10:41:46.922Z,3128
2019-02-02T10:42:56.870Z,3176
2019-02-02T10:44:07.075Z,3292
2019-02-02T10:45:16.768Z,3308
2019-02-02T10:46:26.221Z,3104
2019-02-02T10:47:35.673Z,2972
2019-02-02T10:48:45.626Z,2872
2019-02-02T10:49:55.325Z,2928
2019-02-02T10:51:05.401Z,2964
2019-02-02T10:52:15.370Z,3008
2019-02-02T10:53:25.326Z,2800
2019-02-02T10:54:35.033Z,2512
2019-02-02T10:55:44.980Z,2520
2019-02-02T10:56:54.912Z,2828
2019-02-02T10:58:04.852Z,3236
2019-02-02T10:59:14.542Z,3524
2019-02-02T11:00:24.030Z,3520
2019-02-02T11:01:33.973Z,3348
2019-02-02T11:02:43.673Z,3068
2019-02-02T11:03:53.383Z,3236
2019-02-02T11:05:03.402Z,3508
2019-02-02T11:06:13.685Z,3684
2019-02-02T11:07:24.031Z,3880
2019-02-02T11:08:34.407Z,3780
2019-02-02T11:09:44.765Z,3624
2019-02-02T11:10:55.241Z,3456
2019-02-02T11:12:05.373Z,3456
2019-02-02T11:13:18.624Z,3532
2019-02-02T11:14:28.928Z,3592
2019-02-02T11:15:39.573Z,3716
2019-02-02T11:16:49.919Z,3932
2019-02-02T11:18:00.674Z,3888
2019-02-02T11:19:10.815Z,3704
2019-02-02T11:20:22.694Z,3496
2019-02-02T11:21:32.942Z,3296
2019-02-02T11:22:43.122Z,3060
2019-02-02T11:23:53.034Z,2812
2019-02-02T11:25:02.847Z,2656
2019-02-02T11:26:13.255Z,2588
2019-02-02T11:27:23.773Z,2488
2019-02-02T11:28:34.327Z,2452
2019-02-02T11:29:44.226Z,2500
2019-02-02T11:30:57.130Z,2628
2019-02-02T11:32:10.278Z,2748
2019-02-02T11:33:20.295Z,2804
2019-02-02T11:34:30.286Z,2792
2019-02-02T11:35:40.238Z,2884
2019-02-02T11:36:51.135Z,3008
2019-02-02T11:38:00.853Z,3220
2019-02-02T11:39:10.794Z,3332
2019-02-02T11:40:20.527Z,3416
2019-02-02T11:41:30.485Z,3388
2019-02-02T11:42:43.743Z,3232
2019-02-02T11:43:53.563Z,3160
2019-02-02T11:45:03.658Z,2920
2019-02-02T11:46:13.342Z,2900
2019-02-02T11:47:23.044Z,3052
2019-02-02T11:48:33.006Z,3176
2019-02-02T11:49:42.968Z,3080
2019-02-02T11:50:52.926Z,3008
2019-02-02T11:52:02.642Z,3048
2019-02-02T11:53:12.602Z,3012
2019-02-02T11:54:22.288Z,2868
2019-02-02T11:55:31.988Z,2780
2019-02-02T11:56:41.686Z,2612
2019-02-02T11:57:54.744Z,2352
2019-02-02T11:59:04.441Z,2060
2019-02-02T12:00:16.274Z,1880
2019-02-02T12:01:26.162Z,1776
2019-02-02T12:02:36.264Z,1740
2019-02-02T12:03:57.194Z,1756
2019-02-02T12:05:06.633Z,1828
2019-02-02T12:06:16.579Z,1916
2019-02-02T12:07:26.542Z,1980
2019-02-02T12:08:36.504Z,2032
2019-02-02T12:09:46.577Z,2084
2019-02-02T12:10:56.524Z,2140
2019-02-02T12:12:06.476Z,2260
2019-02-02T12:13:15.929Z,2372
2019-02-02T12:14:25.636Z,2340
2019-02-02T12:15:35.339Z,2224
2019-02-02T12:16:45.314Z,2344
2019-02-02T12:17:55.295Z,2532
2019-02-02T12:19:04.780Z,2784
2019-02-02T12:20:14.500Z,2912
2019-02-02T12:21:23.970Z,2956
2019-02-02T12:22:33.921Z,2688
2019-02-02T12:23:43.890Z,2540
2019-02-02T12:24:53.607Z,2496
2019-02-02T12:26:03.306Z,2328
2019-02-02T12:27:13.272Z,2232
2019-02-02T12:28:22.972Z,2260
2019-02-02T12:29:32.914Z,2360
2019-02-02T12:30:42.615Z,2556
2019-02-02T12:31:52.297Z,2652
2019-02-02T12:33:05.675Z,2768
2019-02-02T12:34:15.638Z,2952
2019-02-02T12:35:25.587Z,2928
2019-02-02T12:36:35.269Z,3084
2019-02-02T12:37:45.005Z,3088
2019-02-02T12:38:54.968Z,3036
2019-02-02T12:40:05.003Z,2848
2019-02-02T12:41:14.758Z,2744
2019-02-02T12:42:24.836Z,2728
2019-02-02T12:43:34.535Z,2536
2019-02-02T12:44:44.521Z,2344
2019-02-02T12:45:54.485Z,2344
2019-02-02T12:47:04.187Z,2340
2019-02-02T12:48:14.132Z,2404
2019-02-02T12:49:23.817Z,2444
2019-02-02T12:50:33.249Z,2456
2019-02-02T12:51:43.179Z,2456
2019-02-02T12:52:53.126Z,2452
2019-02-02T12:54:03.239Z,2504
2019-02-02T12:55:13.323Z,2712
2019-02-02T12:56:23.042Z,2796
2019-02-02T12:57:32.519Z,2824
2019-02-02T12:58:41.966Z,2744
2019-02-02T12:59:51.924Z,2728
2019-02-02T13:01:01.606Z,2496
2019-02-02T13:02:11.292Z,2136
2019-02-02T13:03:21.234Z,1752
2019-02-02T13:04:31.198Z,1696
2019-02-02T13:05:43.662Z,1640
2019-02-02T13:06:54.671Z,1564
2019-02-02T13:08:07.649Z,1492
2019-02-02T13:09:17.598Z,1352
2019-02-02T13:10:29.442Z,1244
2019-02-02T13:11:39.157Z,1180
2019-02-02T13:12:49.102Z,1200
2019-02-02T13:13:59.058Z,1252
2019-02-02T13:15:08.743Z,1288
2019-02-02T13:16:18.434Z,1288
2019-02-02T13:17:28.392Z,1256
2019-02-02T13:18:38.348Z,1204
2019-02-02T13:19:48.289Z,1172
2019-02-02T13:20:57.727Z,1176
2019-02-02T13:22:07.679Z,1300
2019-02-02T13:23:17.611Z,1244
2019-02-02T13:24:27.552Z,1276
2019-02-02T13:25:37.523Z,1400
2019-02-02T13:26:47.238Z,1388
2019-02-02T13:27:57.173Z,1392
2019-02-02T13:29:07.281Z,1460
2019-02-02T13:30:17.254Z,1548
2019-02-02T13:31:28.277Z,1620
2019-02-02T13:32:48.968Z,1888
2019-02-02T13:33:59.385Z,1720
2019-02-02T13:35:09.328Z,1752
2019-02-02T13:36:19.049Z,1676
2019-02-02T13:37:28.999Z,1732
2019-02-02T13:38:38.947Z,1780
2019-02-02T13:39:48.909Z,1916
2019-02-02T13:40:58.609Z,1932
2019-02-02T13:42:08.444Z,1892
2019-02-02T13:43:18.135Z,1780
2019-02-02T13:44:27.336Z,1724
2019-02-02T13:45:37.285Z,1720
2019-02-02T13:46:47.270Z,1732
2019-02-02T13:47:57.245Z,1756
2019-02-02T13:49:07.205Z,1804
2019-02-02T13:50:17.310Z,1904
2019-02-02T13:51:27.092Z,1984
2019-02-02T13:52:37.036Z,2064
2019-02-02T13:53:46.737Z,2052
2019-02-02T13:54:56.689Z,2236
2019-02-02T13:56:06.644Z,2204
2019-02-02T13:57:16.606Z,2228
2019-02-02T13:58:25.798Z,2500
2019-02-02T13:59:35.248Z,2740
2019-02-02T14:00:45.199Z,2604
2019-02-02T14:01:54.907Z,2692
2019-02-02T14:03:10.363Z,2332
2019-02-02T14:04:20.063Z,2308
2019-02-02T14:05:29.755Z,1908
2019-02-02T14:06:39.181Z,1840
2019-02-02T14:07:49.126Z,1644
2019-02-02T14:08:58.833Z,1516
2019-02-02T14:10:08.775Z,1432
2019-02-02T14:11:18.458Z,1332
2019-02-02T14:12:28.139Z,1360
2019-02-02T14:13:38.086Z,1320
2019-02-02T14:14:48.057Z,1348
2019-02-02T14:15:57.994Z,1248
2019-02-02T14:17:07.941Z,1144
2019-02-02T14:18:17.885Z,1056
2019-02-02T14:19:27.829Z,1168
2019-02-02T14:20:37.768Z,1328
2019-02-02T14:21:47.714Z,1432
2019-02-02T14:22:57.795Z,1468
2019-02-02T14:24:07.771Z,1512
2019-02-02T14:25:17.461Z,1652
2019-02-02T14:26:26.915Z,1556
2019-02-02T14:27:36.869Z,1540
2019-02-02T14:28:46.827Z,1536
2019-02-02T14:29:56.799Z,1644
2019-02-02T14:31:06.597Z,1784
2019-02-02T14:32:16.297Z,1852
2019-02-02T14:33:26.241Z,1736
2019-02-02T14:34:46.768Z,1844
2019-02-02T14:35:56.471Z,1940
2019-02-02T14:37:09.514Z,1964
2019-02-02T14:38:22.805Z,1712
2019-02-02T14:39:32.751Z,1656
2019-02-02T14:40:42.696Z,1672
2019-02-02T14:41:52.659Z,1576
2019-02-02T14:43:02.613Z,1444
2019-02-02T14:44:12.311Z,1384
2019-02-02T14:45:21.513Z,1396
2019-02-02T14:46:34.593Z,1344
2019-02-02T14:47:44.537Z,1244
2019-02-02T14:48:53.773Z,1224
2019-02-02T14:50:03.741Z,1156
2019-02-02T14:51:13.511Z,1096
2019-02-02T14:52:23.467Z,1004
2019-02-02T14:53:33.167Z,928
2019-02-02T14:54:43.121Z,996
2019-02-02T14:55:53.376Z,960
2019-02-02T14:57:03.309Z,912
2019-02-02T14:58:13.272Z,988
2019-02-02T14:59:23.233Z,984
2019-02-02T15:00:32.941Z,984
2019-02-02T15:01:42.620Z,1012
2019-02-02T15:02:52.082Z,1028
2019-02-02T15:04:02.110Z,1104
2019-02-02T15:05:12.087Z,1100
2019-02-02T15:06:22.086Z,916
2019-02-02T15:07:32.051Z,848
2019-02-02T15:08:41.486Z,900
2019-02-02T15:09:51.433Z,920
2019-02-02T15:11:00.903Z,1008
2019-02-02T15:12:10.846Z,940
2019-02-02T15:13:20.795Z,800
2019-02-02T15:14:30.503Z,748
2019-02-02T15:15:40.491Z,632
2019-02-02T15:16:49.678Z,596
2019-02-02T15:17:59.649Z,556
2019-02-02T15:19:09.469Z,544
2019-02-02T15:20:22.009Z,528
2019-02-02T15:21:32.289Z,496
2019-02-02T15:22:42.014Z,448
2019-02-02T15:23:52.564Z,428
2019-02-02T15:25:02.271Z,408
2019-02-02T15:26:12.219Z,356
2019-02-02T15:27:22.162Z,320
2019-02-02T15:28:31.881Z,288
2019-02-02T15:29:41.575Z,284
2019-02-02T15:30:51.295Z,252
2019-02-02T15:32:01.313Z,236
2019-02-02T15:33:11.011Z,216
2019-02-02T15:34:20.855Z,216
2019-02-02T15:35:30.555Z,208
2019-02-02T15:36:40.521Z,180
2019-02-02T15:37:49.769Z,172
2019-02-02T15:38:59.715Z,156
2019-02-02T15:40:09.417Z,140
2019-02-02T15:41:19.370Z,128
2019-02-02T15:42:29.065Z,128
2019-02-02T15:43:39.011Z,124
2019-02-02T15:44:48.703Z,120
2019-02-02T15:45:58.415Z,116
2019-02-02T15:47:08.367Z,128
2019-02-02T15:48:18.319Z,116
2019-02-02T15:49:28.024Z,108
2019-02-02T15:50:37.724Z,120
2019-02-02T15:51:47.843Z,108
2019-02-02T15:52:57.806Z,100
2019-02-02T15:54:07.763Z,92
2019-02-02T15:55:17.768Z,92
2019-02-02T15:56:27.467Z,84
2019-02-02T15:57:37.428Z,84
2019-02-02T15:58:47.532Z,72
2019-02-02T15:59:57.483Z,64
2019-02-02T16:01:07.449Z,52
2019-02-02T16:02:17.399Z,52
2019-02-02T16:03:27.118Z,40
2019-02-02T16:04:36.825Z,36
2019-02-02T16:05:46.530Z,28
2019-02-02T16:06:56.219Z,24
2019-02-02T16:08:06.164Z,20
2019-02-02T16:09:16.125Z,16
2019-02-02T16:10:25.852Z,12
2019-02-02T16:11:35.818Z,12
2019-02-02T16:12:45.554Z,8
2019-02-02T16:13:55.501Z,8
2019-02-02T16:15:05.207Z,4
2019-02-02T16:16:15.167Z,8
2019-02-02T16:17:24.625Z,8
2019-02-02T16:18:34.351Z,4